Slnc Moku Pahu — WBWK — position and weather

sailwx.info

Track history (hours):
 
Tides and Currents Weather Stations Pressure Air Temp Water Temp Dewpoint Dewpoint Depression Visibility Wind Speed Wind Dir Waves Ship Positions

Slnc Moku Pahu

Owner: American Ship Management, LLC., Concord, CA. More information available from US FCC via Universal Licensing System and Coast Guard Vessel Documentation Center.

Last reported at 2017-Sep-15 18:15 UTC. Time now 2017-Sep-24 23:08 UTC.
Position N 35°56' W 006°14'.
Warning: this ship's position is 9 days out of date.

Type: Ship. MMSI: 366857000.

Date/timePositionNaut miles runAvg speedWind from/ knotsBaromVisibWave heightAir tempDewpointWater temp
2017-Sep-15 18:15N 35°56' W 006°14'613.7
2017-Sep-15 17:47N 35°56' W 006°06'3111.8
2017-Sep-15 15:08N 35°60' W 005°27'4 8.6
2017-Sep-15 14:41N 36°01' W 005°23'210.7
2017-Sep-15 14:30N 36°03' W 005°23'5 0.5
2017-Sep-15 05:06N 36°08' W 005°22'0 0.1
2017-Sep-15 05:00N 36°08' W 005°22'0 0.2
2017-Sep-15 02:30N 36°08' W 005°22'3 5.2
2017-Sep-15 01:58N 36°05' W 005°20'5 9.8
2017-Sep-15 01:29N 36°06' W 005°14'510.0
2017-Sep-15 00:59N 36°07' W 005°09'8 2.6
2017-Sep-14 21:46N 36°08' W 004°58'3 2.2
2017-Sep-14 20:21N 36°09' W 005°02'1 2.1
2017-Sep-14 19:56N 36°09' W 005°03'1 2.2
2017-Sep-14 19:30N 36°09' W 005°04'1 2.3
2017-Sep-14 19:00N 36°09' W 005°05'4 2.2
2017-Sep-14 17:23N 36°08' W 005°10'1 2.1
2017-Sep-14 17:00N 36°08' W 005°11'1 1.6
2017-Sep-14 16:28N 36°08' W 005°12'0 0.6
2017-Sep-14 15:56N 36°08' W 005°12'1 1.8
2017-Sep-14 15:30N 36°09' W 005°12'2 3.9
2017-Sep-14 15:00N 36°11' W 005°11'2 1.1
2017-Sep-14 12:46N 36°08' W 005°11'13912.7
2017-Sep-14 01:51N 36°14' W 002°19'613.5
2017-Sep-14 01:25N 36°14' W 002°12'613.4
2017-Sep-14 01:00N 36°15' W 002°05'813.3
2017-Sep-14 00:26N 36°16' W 001°55'613.1
2017-Sep-14 00:00N 36°17' W 001°48'613.0
2017-Sep-13 23:30N 36°18' W 001°41'612.8
2017-Sep-13 23:00N 36°19' W 001°33'612.8
2017-Sep-13 22:30N 36°20' W 001°25'1212.8
2017-Sep-13 21:34N 36°22' W 001°10'113.0
2017-Sep-13 21:30N 36°23' W 001°09'1713.5
2017-Sep-13 20:13N 36°26' W 000°48'313.7
2017-Sep-13 19:58N 36°27' W 000°44'613.8
2017-Sep-13 19:30N 36°28' W 000°36'713.8
2017-Sep-13 18:59N 36°29' W 000°27'1913.7
2017-Sep-13 17:34N 36°32' W 000°03'113.8
2017-Sep-13 17:30N 36°32' W 000°02'713.7
2017-Sep-13 17:00N 36°33' E 000°06'713.6
2017-Sep-13 16:29N 36°35' E 000°15'6113.6
2017-Sep-13 12:02N 36°45' E 001°29'114.1
2017-Sep-13 11:59N 36°45' E 001°30'714.6
2017-Sep-13 11:30N 36°46' E 001°39'59611.9
2017-Sep-11 09:15N 35°58' E 013°57'311.9
2017-Sep-11 09:00N 35°57' E 013°60'611.9
2017-Sep-11 08:29N 35°54' E 014°06'612.1
2017-Sep-11 08:00N 35°51' E 014°13'612.2
2017-Sep-11 07:30N 35°47' E 014°19'612.0
2017-Sep-11 07:00N 35°44' E 014°25'811.7
2017-Sep-11 06:21N 35°43' E 014°35'7012.4
2017-Sep-11 00:44N 35°46' E 016°00'313.5
2017-Sep-11 00:30N 35°46' E 016°04'1113.7
2017-Sep-10 23:41N 35°45' E 016°18'1613.7
2017-Sep-10 22:32N 35°44' E 016°37'013.8
2017-Sep-10 22:30N 35°44' E 016°38'3413.1
2017-Sep-10 19:53N 35°45' E 017°20'30213.0
2017-Sep-09 20:42N 35°57' E 023°32'313.6
2017-Sep-09 20:30N 35°60' E 023°34'4113.7
2017-Sep-09 17:29N 36°37' E 023°56'713.6
2017-Sep-09 17:00N 36°43' E 023°59'2914.0
2017-Sep-09 14:56N 37°10' E 024°13'18413.0
2017-Sep-09 00:48N 39°57' E 025°50'152 9.9
2017-Sep-08 09:25N 40°56' E 028°54'4 0.3
2017-Sep-07 22:11N 40°59' E 028°57'0 0.1
2017-Sep-07 21:45N 40°59' E 028°57'0 0.1
2017-Sep-07 21:30N 40°59' E 028°57'0 0.0
2017-Sep-07 20:55N 40°59' E 028°57'2 0.3
2017-Sep-07 15:15N 40°57' E 028°56'2 5.0
2017-Sep-07 14:52N 40°56' E 028°58'4 8.5
2017-Sep-07 14:23N 40°53' E 029°00'  
Track history (hours):
 
Tides and Currents Weather Stations Pressure Air Temp Water Temp Dewpoint Dewpoint Depression Visibility Wind Speed Wind Dir Waves Ship Positions

Slnc Moku Pahu

Owner: American Ship Management, LLC., Concord, CA. More information available from US FCC via Universal Licensing System and Coast Guard Vessel Documentation Center.

Last reported at 2017-Sep-15 18:15 UTC. Time now 2017-Sep-24 23:08 UTC.
Position N 35°56' W 006°14'.
Warning: this ship's position is 9 days out of date.

Type: Ship. MMSI: 366857000.

Date/timePositionNaut miles runAvg speedWind from/ knotsBaromVisibWave heightAir tempDewpointWater temp
2017-Sep-15 18:15N 35°56' W 006°14'613.7
2017-Sep-15 17:47N 35°56' W 006°06'3111.8
2017-Sep-15 15:08N 35°60' W 005°27'4 8.6
2017-Sep-15 14:41N 36°01' W 005°23'210.7
2017-Sep-15 14:30N 36°03' W 005°23'5 0.5
2017-Sep-15 05:06N 36°08' W 005°22'0 0.1
2017-Sep-15 05:00N 36°08' W 005°22'0 0.2
2017-Sep-15 02:30N 36°08' W 005°22'3 5.2
2017-Sep-15 01:58N 36°05' W 005°20'5 9.8
2017-Sep-15 01:29N 36°06' W 005°14'510.0
2017-Sep-15 00:59N 36°07' W 005°09'8 2.6
2017-Sep-14 21:46N 36°08' W 004°58'3 2.2
2017-Sep-14 20:21N 36°09' W 005°02'1 2.1
2017-Sep-14 19:56N 36°09' W 005°03'1 2.2
2017-Sep-14 19:30N 36°09' W 005°04'1 2.3
2017-Sep-14 19:00N 36°09' W 005°05'4 2.2
2017-Sep-14 17:23N 36°08' W 005°10'1 2.1
2017-Sep-14 17:00N 36°08' W 005°11'1 1.6
2017-Sep-14 16:28N 36°08' W 005°12'0 0.6
2017-Sep-14 15:56N 36°08' W 005°12'1 1.8
2017-Sep-14 15:30N 36°09' W 005°12'2 3.9
2017-Sep-14 15:00N 36°11' W 005°11'2 1.1
2017-Sep-14 12:46N 36°08' W 005°11'13912.7
2017-Sep-14 01:51N 36°14' W 002°19'613.5
2017-Sep-14 01:25N 36°14' W 002°12'613.4
2017-Sep-14 01:00N 36°15' W 002°05'813.3
2017-Sep-14 00:26N 36°16' W 001°55'613.1
2017-Sep-14 00:00N 36°17' W 001°48'613.0
2017-Sep-13 23:30N 36°18' W 001°41'612.8
2017-Sep-13 23:00N 36°19' W 001°33'612.8
2017-Sep-13 22:30N 36°20' W 001°25'1212.8
2017-Sep-13 21:34N 36°22' W 001°10'113.0
2017-Sep-13 21:30N 36°23' W 001°09'1713.5
2017-Sep-13 20:13N 36°26' W 000°48'313.7
2017-Sep-13 19:58N 36°27' W 000°44'613.8
2017-Sep-13 19:30N 36°28' W 000°36'713.8
2017-Sep-13 18:59N 36°29' W 000°27'1913.7
2017-Sep-13 17:34N 36°32' W 000°03'113.8
2017-Sep-13 17:30N 36°32' W 000°02'713.7
2017-Sep-13 17:00N 36°33' E 000°06'713.6
2017-Sep-13 16:29N 36°35' E 000°15'6113.6
2017-Sep-13 12:02N 36°45' E 001°29'114.1
2017-Sep-13 11:59N 36°45' E 001°30'714.6
2017-Sep-13 11:30N 36°46' E 001°39'59611.9
2017-Sep-11 09:15N 35°58' E 013°57'311.9
2017-Sep-11 09:00N 35°57' E 013°60'611.9
2017-Sep-11 08:29N 35°54' E 014°06'612.1
2017-Sep-11 08:00N 35°51' E 014°13'612.2
2017-Sep-11 07:30N 35°47' E 014°19'612.0
2017-Sep-11 07:00N 35°44' E 014°25'811.7
2017-Sep-11 06:21N 35°43' E 014°35'7012.4
2017-Sep-11 00:44N 35°46' E 016°00'313.5
2017-Sep-11 00:30N 35°46' E 016°04'1113.7
2017-Sep-10 23:41N 35°45' E 016°18'1613.7
2017-Sep-10 22:32N 35°44' E 016°37'013.8
2017-Sep-10 22:30N 35°44' E 016°38'3413.1
2017-Sep-10 19:53N 35°45' E 017°20'30213.0
2017-Sep-09 20:42N 35°57' E 023°32'313.6
2017-Sep-09 20:30N 35°60' E 023°34'4113.7
2017-Sep-09 17:29N 36°37' E 023°56'713.6
2017-Sep-09 17:00N 36°43' E 023°59'2914.0
2017-Sep-09 14:56N 37°10' E 024°13'18413.0
2017-Sep-09 00:48N 39°57' E 025°50'152 9.9
2017-Sep-08 09:25N 40°56' E 028°54'4 0.3
2017-Sep-07 22:11N 40°59' E 028°57'0 0.1
2017-Sep-07 21:45N 40°59' E 028°57'0 0.1
2017-Sep-07 21:30N 40°59' E 028°57'0 0.0
2017-Sep-07 20:55N 40°59' E 028°57'2 0.3
2017-Sep-07 15:15N 40°57' E 028°56'2 5.0
2017-Sep-07 14:52N 40°56' E 028°58'4 8.5
2017-Sep-07 14:23N 40°53' E 029°00'  

Dump ship's entire track history